sensor_id;sensor_type;location;lat;lon;timestamp;pressure;altitude;pressure_sealevel;temperature;humidity
48154;BME280;33942;49.272;14.452;2022-11-15T11:16:48;96837.42;;;2.96;100.00
48154;BME280;33942;49.272;14.452;2022-11-15T11:20:36;96830.42;;;6.09;100.00
48154;BME280;33942;49.272;14.452;2022-11-15T11:23:21;96832.48;;;7.45;100.00
48154;BME280;33942;49.272;14.452;2022-11-15T11:25:56;96833.13;;;7.68;100.00
48154;BME280;33942;49.272;14.452;2022-11-15T11:28:36;96825.73;;;8.33;100.00
48154;BME280;33942;49.272;14.452;2022-11-15T11:31:17;96825.54;;;8.76;100.00
48154;BME280;33942;49.272;14.452;2022-11-15T11:33:55;96822.35;;;8.98;100.00
48154;BME280;33942;49.272;14.452;2022-11-15T11:36:35;96817.44;;;9.02;100.00
48154;BME280;33942;49.272;14.452;2022-11-15T11:39:18;96818.58;;;8.94;100.00
48154;BME280;33942;49.272;14.452;2022-11-15T11:41:56;96823.17;;;9.08;100.00
48154;BME280;33942;49.272;14.452;2022-11-15T11:44:33;96820.92;;;8.79;100.00
48154;BME280;33942;49.272;14.452;2022-11-15T11:47:06;96814.82;;;9.19;100.00
48154;BME280;33942;49.272;14.452;2022-11-15T11:49:43;96801.50;;;9.20;100.00
48154;BME280;33942;49.272;14.452;2022-11-15T11:52:17;96795.76;;;9.22;100.00
48154;BME280;33942;49.272;14.452;2022-11-15T11:54:54;96791.28;;;9.30;100.00
48154;BME280;33942;49.272;14.452;2022-11-15T11:57:33;96788.39;;;9.22;100.00
48154;BME280;33942;49.272;14.452;2022-11-15T12:00:09;96788.80;;;9.18;100.00
48154;BME280;33942;49.272;14.452;2022-11-15T12:02:43;96785.68;;;9.27;100.00
48154;BME280;33942;49.272;14.452;2022-11-15T12:05:17;96783.18;;;9.30;100.00
48154;BME280;33942;49.272;14.452;2022-11-15T12:07:46;96777.07;;;9.24;100.00
48154;BME280;33942;49.272;14.452;2022-11-15T12:10:20;96770.86;;;9.45;100.00
48154;BME280;33942;49.272;14.452;2022-11-15T12:12:54;96763.93;;;9.00;100.00
48154;BME280;33942;49.272;14.452;2022-11-15T12:15:27;96760.35;;;9.24;100.00
48154;BME280;33942;49.272;14.452;2022-11-15T12:17:55;96758.04;;;8.88;100.00
48154;BME280;33942;49.272;14.452;2022-11-15T12:20:26;96756.51;;;8.98;100.00
48154;BME280;33942;49.272;14.452;2022-11-15T12:22:58;96755.48;;;9.00;100.00
48154;BME280;33942;49.272;14.452;2022-11-15T12:25:30;96750.17;;;9.00;100.00
48154;BME280;33942;49.272;14.452;2022-11-15T12:28:02;96747.66;;;9.29;100.00
48154;BME280;33942;49.272;14.452;2022-11-15T12:30:45;96739.84;;;9.15;100.00
48154;BME280;33942;49.272;14.452;2022-11-15T12:33:31;96737.87;;;9.49;100.00
48154;BME280;33942;49.272;14.452;2022-11-15T12:36:03;96735.02;;;9.34;100.00
48154;BME280;33942;49.272;14.452;2022-11-15T12:39:04;96733.19;;;9.24;100.00
48154;BME280;33942;49.272;14.452;2022-11-15T12:41:33;96728.99;;;9.32;100.00
48154;BME280;33942;49.272;14.452;2022-11-15T12:44:01;96726.30;;;9.11;100.00
48154;BME280;33942;49.272;14.452;2022-11-15T12:47:04;96721.54;;;8.93;100.00
48154;BME280;33942;49.272;14.452;2022-11-15T12:49:47;96721.95;;;9.20;100.00
48154;BME280;33942;49.272;14.452;2022-11-15T12:52:14;96716.88;;;9.27;100.00
48154;BME280;33942;49.272;14.452;2022-11-15T12:55:00;96714.96;;;9.15;100.00
48154;BME280;33942;49.272;14.452;2022-11-15T12:57:38;96709.34;;;9.39;100.00
48154;BME280;33942;49.272;14.452;2022-11-15T13:00:37;96703.34;;;9.34;100.00
48154;BME280;33942;49.272;14.452;2022-11-15T13:03:26;96697.25;;;9.41;100.00
48154;BME280;33942;49.272;14.452;2022-11-15T13:06:08;96691.30;;;9.26;100.00
48154;BME280;33942;49.272;14.452;2022-11-15T13:08:39;96687.32;;;9.31;100.00
48154;BME280;33942;49.272;14.452;2022-11-15T13:12:49;96679.64;;;9.27;100.00
48154;BME280;33942;49.272;14.452;2022-11-15T13:16:22;96678.41;;;9.29;100.00
48154;BME280;33942;49.272;14.452;2022-11-15T13:18:54;96671.88;;;9.19;100.00
48154;BME280;33942;49.272;14.452;2022-11-15T13:21:23;96668.68;;;9.06;100.00
48154;BME280;33942;49.272;14.452;2022-11-15T13:23:53;96667.41;;;9.00;100.00
48154;BME280;33942;49.272;14.452;2022-11-15T13:26:21;96664.54;;;8.98;100.00
48154;BME280;33942;49.272;14.452;2022-11-15T13:28:51;96666.30;;;9.26;100.00
48154;BME280;33942;49.272;14.452;2022-11-15T13:31:29;96666.38;;;8.90;100.00
48154;BME280;33942;49.272;14.452;2022-11-15T13:34:00;96660.87;;;9.39;100.00
48154;BME280;33942;49.272;14.452;2022-11-15T13:36:30;96656.95;;;9.30;100.00
48154;BME280;33942;49.272;14.452;2022-11-15T13:39:01;96653.18;;;9.38;100.00
48154;BME280;33942;49.272;14.452;2022-11-15T13:41:31;96650.92;;;9.06;100.00
48154;BME280;33942;49.272;14.452;2022-11-15T13:44:00;96649.05;;;9.01;100.00
48154;BME280;33942;49.272;14.452;2022-11-15T13:46:29;96645.55;;;8.81;100.00
48154;BME280;33942;49.272;14.452;2022-11-15T13:48:59;96646.21;;;9.35;100.00
48154;BME280;33942;49.272;14.452;2022-11-15T13:51:33;96643.98;;;9.20;100.00
48154;BME280;33942;49.272;14.452;2022-11-15T13:54:03;96644.69;;;9.21;100.00
48154;BME280;33942;49.272;14.452;2022-11-15T13:56:36;96647.97;;;8.83;100.00
48154;BME280;33942;49.272;14.452;2022-11-15T13:59:09;96653.79;;;8.86;100.00
48154;BME280;33942;49.272;14.452;2022-11-15T14:01:36;96656.92;;;9.11;100.00
48154;BME280;33942;49.272;14.452;2022-11-15T14:04:04;96655.88;;;9.01;100.00
48154;BME280;33942;49.272;14.452;2022-11-15T14:06:31;96647.48;;;9.09;100.00
48154;BME280;33942;49.272;14.452;2022-11-15T14:09:03;96642.38;;;8.79;100.00
48154;BME280;33942;49.272;14.452;2022-11-15T14:11:30;96639.49;;;8.77;100.00
48154;BME280;33942;49.272;14.452;2022-11-15T14:14:08;96639.14;;;8.77;100.00
48154;BME280;33942;49.272;14.452;2022-11-15T14:16:39;96636.57;;;8.59;100.00
48154;BME280;33942;49.272;14.452;2022-11-15T14:19:11;96637.54;;;8.71;100.00
48154;BME280;33942;49.272;14.452;2022-11-15T14:22:09;96638.68;;;8.83;100.00
48154;BME280;33942;49.272;14.452;2022-11-15T14:24:37;96633.69;;;8.61;100.00
48154;BME280;33942;49.272;14.452;2022-11-15T14:27:23;96632.78;;;8.85;100.00
48154;BME280;33942;49.272;14.452;2022-11-15T14:29:51;96628.90;;;8.93;100.00
48154;BME280;33942;49.272;14.452;2022-11-15T14:32:20;96627.29;;;8.80;100.00
48154;BME280;33942;49.272;14.452;2022-11-15T14:34:47;96622.80;;;8.84;100.00
48154;BME280;33942;49.272;14.452;2022-11-15T14:37:21;96620.32;;;8.76;100.00
48154;BME280;33942;49.272;14.452;2022-11-15T14:39:52;96617.90;;;8.99;100.00
48154;BME280;33942;49.272;14.452;2022-11-15T14:42:22;96619.93;;;8.74;100.00
48154;BME280;33942;49.272;14.452;2022-11-15T14:44:50;96620.25;;;8.48;100.00
48154;BME280;33942;49.272;14.452;2022-11-15T14:47:19;96616.04;;;8.57;100.00
48154;BME280;33942;49.272;14.452;2022-11-15T14:49:46;96615.60;;;8.60;100.00
48154;BME280;33942;49.272;14.452;2022-11-15T14:52:24;96612.53;;;8.58;100.00
48154;BME280;33942;49.272;14.452;2022-11-15T14:54:52;96610.05;;;8.56;100.00
48154;BME280;33942;49.272;14.452;2022-11-15T14:57:19;96607.59;;;8.57;100.00
48154;BME280;33942;49.272;14.452;2022-11-15T14:59:47;96603.01;;;8.61;100.00
48154;BME280;33942;49.272;14.452;2022-11-15T15:02:18;96602.67;;;8.83;100.00
48154;BME280;33942;49.272;14.452;2022-11-15T15:04:45;96601.37;;;8.58;100.00
48154;BME280;33942;49.272;14.452;2022-11-15T15:07:12;96598.29;;;8.33;100.00
48154;BME280;33942;49.272;14.452;2022-11-15T15:09:40;96598.87;;;8.21;100.00
48154;BME280;33942;49.272;14.452;2022-11-15T15:12:15;96599.34;;;8.28;100.00
48154;BME280;33942;49.272;14.452;2022-11-15T15:14:43;96593.97;;;8.27;100.00
48154;BME280;33942;49.272;14.452;2022-11-15T15:17:10;96599.78;;;8.32;100.00
48154;BME280;33942;49.272;14.452;2022-11-15T15:19:38;96603.01;;;8.35;100.00
48154;BME280;33942;49.272;14.452;2022-11-15T15:22:05;96605.76;;;8.28;100.00
48154;BME280;33942;49.272;14.452;2022-11-15T15:24:32;96602.52;;;8.13;100.00
48154;BME280;33942;49.272;14.452;2022-11-15T15:27:00;96602.13;;;8.30;100.00
48154;BME280;33942;49.272;14.452;2022-11-15T15:29:27;96596.79;;;8.40;100.00
48154;BME280;33942;49.272;14.452;2022-11-15T15:31:55;96598.81;;;8.47;100.00
